sensor_id;sensor_type;location;lat;lon;timestamp;P1;durP1;ratioP1;P2;durP2;ratioP2
74535;SDS011;63013;51.104;-115.370;2023-06-04T00:02:25;10.10;;;5.40;;
74535;SDS011;63013;51.104;-115.370;2023-06-04T00:04:52;10.80;;;4.80;;
74535;SDS011;63013;51.104;-115.370;2023-06-04T00:07:19;11.70;;;5.00;;
74535;SDS011;63013;51.104;-115.370;2023-06-04T00:09:47;9.90;;;4.70;;
74535;SDS011;63013;51.104;-115.370;2023-06-04T00:12:14;8.20;;;4.90;;
74535;SDS011;63013;51.104;-115.370;2023-06-04T00:14:42;9.10;;;4.90;;
74535;SDS011;63013;51.104;-115.370;2023-06-04T00:17:10;8.40;;;4.70;;
74535;SDS011;63013;51.104;-115.370;2023-06-04T00:19:40;11.40;;;4.60;;
74535;SDS011;63013;51.104;-115.370;2023-06-04T00:22:08;8.60;;;4.60;;
74535;SDS011;63013;51.104;-115.370;2023-06-04T00:24:37;8.70;;;4.40;;
74535;SDS011;63013;51.104;-115.370;2023-06-04T00:27:08;8.00;;;4.80;;
74535;SDS011;63013;51.104;-115.370;2023-06-04T00:29:35;8.30;;;4.20;;
74535;SDS011;63013;51.104;-115.370;2023-06-04T00:32:03;9.70;;;4.60;;
74535;SDS011;63013;51.104;-115.370;2023-06-04T00:34:30;7.70;;;4.30;;
74535;SDS011;63013;51.104;-115.370;2023-06-04T00:36:57;6.00;;;4.40;;
74535;SDS011;63013;51.104;-115.370;2023-06-04T00:39:24;8.80;;;4.70;;
74535;SDS011;63013;51.104;-115.370;2023-06-04T00:41:51;8.60;;;4.30;;
74535;SDS011;63013;51.104;-115.370;2023-06-04T00:44:18;8.00;;;4.30;;
74535;SDS011;63013;51.104;-115.370;2023-06-04T00:46:47;7.30;;;4.20;;
74535;SDS011;63013;51.104;-115.370;2023-06-04T00:49:15;6.70;;;4.00;;
74535;SDS011;63013;51.104;-115.370;2023-06-04T00:51:42;6.40;;;3.90;;
74535;SDS011;63013;51.104;-115.370;2023-06-04T00:54:09;7.20;;;4.00;;
74535;SDS011;63013;51.104;-115.370;2023-06-04T00:56:37;7.70;;;4.30;;
74535;SDS011;63013;51.104;-115.370;2023-06-04T00:59:07;6.20;;;4.00;;
74535;SDS011;63013;51.104;-115.370;2023-06-04T01:04:42;6.20;;;3.80;;
74535;SDS011;63013;51.104;-115.370;2023-06-04T01:07:15;6.70;;;3.80;;
74535;SDS011;63013;51.104;-115.370;2023-06-04T01:09:44;6.30;;;3.80;;
74535;SDS011;63013;51.104;-115.370;2023-06-04T01:12:12;5.50;;;3.50;;
74535;SDS011;63013;51.104;-115.370;2023-06-04T01:14:40;6.30;;;3.90;;
74535;SDS011;63013;51.104;-115.370;2023-06-04T01:17:13;6.50;;;3.80;;
74535;SDS011;63013;51.104;-115.370;2023-06-04T01:25:38;5.60;;;3.60;;
74535;SDS011;63013;51.104;-115.370;2023-06-04T01:28:13;5.60;;;3.90;;
74535;SDS011;63013;51.104;-115.370;2023-06-04T01:30:44;5.20;;;3.90;;
74535;SDS011;63013;51.104;-115.370;2023-06-04T01:33:17;7.00;;;4.50;;
74535;SDS011;63013;51.104;-115.370;2023-06-04T01:35:46;5.60;;;3.90;;
74535;SDS011;63013;51.104;-115.370;2023-06-04T01:38:13;7.40;;;4.00;;
74535;SDS011;63013;51.104;-115.370;2023-06-04T01:40:41;6.30;;;4.10;;
74535;SDS011;63013;51.104;-115.370;2023-06-04T01:43:08;5.80;;;4.20;;
74535;SDS011;63013;51.104;-115.370;2023-06-04T01:45:36;7.10;;;4.30;;
74535;SDS011;63013;51.104;-115.370;2023-06-04T01:48:04;8.70;;;4.60;;
74535;SDS011;63013;51.104;-115.370;2023-06-04T01:50:32;7.30;;;4.70;;
74535;SDS011;63013;51.104;-115.370;2023-06-04T01:52:59;7.00;;;5.10;;
74535;SDS011;63013;51.104;-115.370;2023-06-04T01:55:26;7.40;;;5.40;;
74535;SDS011;63013;51.104;-115.370;2023-06-04T01:57:55;8.10;;;5.30;;
74535;SDS011;63013;51.104;-115.370;2023-06-04T02:00:22;11.30;;;6.00;;
74535;SDS011;63013;51.104;-115.370;2023-06-04T02:02:49;8.30;;;5.30;;
74535;SDS011;63013;51.104;-115.370;2023-06-04T02:05:16;7.80;;;4.90;;
74535;SDS011;63013;51.104;-115.370;2023-06-04T02:07:45;9.50;;;5.40;;
74535;SDS011;63013;51.104;-115.370;2023-06-04T02:10:18;8.10;;;4.50;;
74535;SDS011;63013;51.104;-115.370;2023-06-04T02:12:58;7.90;;;5.00;;
74535;SDS011;63013;51.104;-115.370;2023-06-04T02:15:27;9.30;;;4.80;;
74535;SDS011;63013;51.104;-115.370;2023-06-04T02:17:57;9.30;;;5.20;;
74535;SDS011;63013;51.104;-115.370;2023-06-04T02:20:27;7.20;;;5.20;;
74535;SDS011;63013;51.104;-115.370;2023-06-04T02:22:55;7.70;;;4.80;;
74535;SDS011;63013;51.104;-115.370;2023-06-04T02:25:25;7.60;;;5.00;;
74535;SDS011;63013;51.104;-115.370;2023-06-04T02:27:52;8.40;;;4.90;;
74535;SDS011;63013;51.104;-115.370;2023-06-04T02:30:20;7.40;;;5.00;;
74535;SDS011;63013;51.104;-115.370;2023-06-04T02:32:47;6.70;;;4.60;;
74535;SDS011;63013;51.104;-115.370;2023-06-04T02:35:17;7.90;;;4.70;;
74535;SDS011;63013;51.104;-115.370;2023-06-04T02:37:44;5.70;;;4.60;;
74535;SDS011;63013;51.104;-115.370;2023-06-04T02:40:11;7.30;;;4.90;;
74535;SDS011;63013;51.104;-115.370;2023-06-04T02:42:38;8.50;;;5.10;;
74535;SDS011;63013;51.104;-115.370;2023-06-04T02:45:09;10.00;;;5.30;;
74535;SDS011;63013;51.104;-115.370;2023-06-04T02:47:38;7.70;;;4.60;;
74535;SDS011;63013;51.104;-115.370;2023-06-04T02:50:06;7.10;;;4.70;;
74535;SDS011;63013;51.104;-115.370;2023-06-04T02:52:33;7.80;;;4.90;;
74535;SDS011;63013;51.104;-115.370;2023-06-04T02:55:07;6.80;;;4.50;;
74535;SDS011;63013;51.104;-115.370;2023-06-04T02:57:35;7.80;;;4.70;;
74535;SDS011;63013;51.104;-115.370;2023-06-04T03:00:04;6.10;;;4.60;;
74535;SDS011;63013;51.104;-115.370;2023-06-04T03:02:42;6.90;;;4.70;;
74535;SDS011;63013;51.104;-115.370;2023-06-04T03:05:14;6.90;;;4.70;;
74535;SDS011;63013;51.104;-115.370;2023-06-04T03:07:45;6.90;;;5.00;;
74535;SDS011;63013;51.104;-115.370;2023-06-04T03:10:14;6.50;;;4.40;;
74535;SDS011;63013;51.104;-115.370;2023-06-04T03:12:41;8.80;;;5.10;;
74535;SDS011;63013;51.104;-115.370;2023-06-04T03:15:09;6.00;;;4.50;;
74535;SDS011;63013;51.104;-115.370;2023-06-04T03:17:36;8.00;;;4.90;;
74535;SDS011;63013;51.104;-115.370;2023-06-04T03:20:04;7.90;;;4.80;;
74535;SDS011;63013;51.104;-115.370;2023-06-04T03:22:33;7.10;;;4.90;;
74535;SDS011;63013;51.104;-115.370;2023-06-04T03:25:02;7.60;;;4.80;;
74535;SDS011;63013;51.104;-115.370;2023-06-04T03:27:32;7.60;;;5.00;;
74535;SDS011;63013;51.104;-115.370;2023-06-04T03:30:00;8.10;;;5.20;;
74535;SDS011;63013;51.104;-115.370;2023-06-04T03:32:27;7.30;;;5.30;;
74535;SDS011;63013;51.104;-115.370;2023-06-04T03:34:54;8.90;;;5.80;;
74535;SDS011;63013;51.104;-115.370;2023-06-04T03:37:21;9.80;;;6.30;;
74535;SDS011;63013;51.104;-115.370;2023-06-04T03:39:48;10.40;;;5.50;;
74535;SDS011;63013;51.104;-115.370;2023-06-04T03:42:15;8.10;;;5.90;;
74535;SDS011;63013;51.104;-115.370;2023-06-04T03:44:42;9.90;;;5.90;;
74535;SDS011;63013;51.104;-115.370;2023-06-04T03:47:09;7.80;;;5.50;;
74535;SDS011;63013;51.104;-115.370;2023-06-04T03:49:36;8.60;;;5.50;;
74535;SDS011;63013;51.104;-115.370;2023-06-04T03:52:03;7.90;;;6.10;;
74535;SDS011;63013;51.104;-115.370;2023-06-04T03:54:30;8.50;;;5.70;;
74535;SDS011;63013;51.104;-115.370;2023-06-04T03:56:57;7.10;;;5.70;;
74535;SDS011;63013;51.104;-115.370;2023-06-04T03:59:24;6.90;;;5.70;;
74535;SDS011;63013;51.104;-115.370;2023-06-04T04:01:52;8.90;;;6.00;;
74535;SDS011;63013;51.104;-115.370;2023-06-04T04:04:18;8.00;;;6.00;;
74535;SDS011;63013;51.104;-115.370;2023-06-04T04:06:46;9.10;;;5.80;;
74535;SDS011;63013;51.104;-115.370;2023-06-04T04:09:14;9.50;;;5.90;;
74535;SDS011;63013;51.104;-115.370;2023-06-04T04:11:41;8.10;;;5.70;;
74535;SDS011;63013;51.104;-115.370;2023-06-04T04:14:08;7.90;;;5.60;;
74535;SDS011;63013;51.104;-115.370;2023-06-04T04:16:35;8.30;;;5.90;;
74535;SDS011;63013;51.104;-115.370;2023-06-04T04:19:03;8.30;;;5.90;;
74535;SDS011;63013;51.104;-115.370;2023-06-04T04:21:30;9.10;;;5.90;;
74535;SDS011;63013;51.104;-115.370;2023-06-04T04:23:56;7.90;;;6.00;;
74535;SDS011;63013;51.104;-115.370;2023-06-04T04:26:24;7.40;;;5.40;;
74535;SDS011;63013;51.104;-115.370;2023-06-04T04:28:53;8.30;;;5.50;;
74535;SDS011;63013;51.104;-115.370;2023-06-04T04:31:24;8.50;;;5.90;;
74535;SDS011;63013;51.104;-115.370;2023-06-04T04:33:56;7.40;;;5.60;;
74535;SDS011;63013;51.104;-115.370;2023-06-04T04:36:23;8.50;;;6.00;;
74535;SDS011;63013;51.104;-115.370;2023-06-04T04:38:50;8.70;;;6.10;;
74535;SDS011;63013;51.104;-115.370;2023-06-04T04:41:20;9.20;;;6.00;;
74535;SDS011;63013;51.104;-115.370;2023-06-04T04:43:48;8.90;;;6.10;;
74535;SDS011;63013;51.104;-115.370;2023-06-04T04:46:15;10.40;;;6.40;;
74535;SDS011;63013;51.104;-115.370;2023-06-04T04:48:43;8.80;;;6.20;;
74535;SDS011;63013;51.104;-115.370;2023-06-04T04:51:10;10.20;;;6.30;;
74535;SDS011;63013;51.104;-115.370;2023-06-04T04:53:37;10.20;;;6.20;;
74535;SDS011;63013;51.104;-115.370;2023-06-04T04:56:04;9.70;;;6.20;;
74535;SDS011;63013;51.104;-115.370;2023-06-04T04:58:31;10.40;;;6.40;;
74535;SDS011;63013;51.104;-115.370;2023-06-04T05:00:58;10.50;;;6.40;;
74535;SDS011;63013;51.104;-115.370;2023-06-04T05:03:25;9.10;;;6.00;;
74535;SDS011;63013;51.104;-115.370;2023-06-04T05:05:52;9.10;;;6.60;;
74535;SDS011;63013;51.104;-115.370;2023-06-04T05:08:19;8.60;;;6.20;;
74535;SDS011;63013;51.104;-115.370;2023-06-04T05:10:46;10.90;;;7.10;;
74535;SDS011;63013;51.104;-115.370;2023-06-04T05:13:13;13.60;;;10.10;;
74535;SDS011;63013;51.104;-115.370;2023-06-04T05:15:41;13.30;;;9.50;;
74535;SDS011;63013;51.104;-115.370;2023-06-04T05:18:08;10.10;;;8.10;;
74535;SDS011;63013;51.104;-115.370;2023-06-04T05:20:35;10.50;;;7.20;;
74535;SDS011;63013;51.104;-115.370;2023-06-04T05:23:03;10.30;;;7.40;;
74535;SDS011;63013;51.104;-115.370;2023-06-04T05:25:31;9.50;;;7.10;;
74535;SDS011;63013;51.104;-115.370;2023-06-04T05:27:57;8.80;;;6.50;;
74535;SDS011;63013;51.104;-115.370;2023-06-04T05:30:25;10.20;;;6.60;;
74535;SDS011;63013;51.104;-115.370;2023-06-04T05:32:52;8.70;;;6.50;;
74535;SDS011;63013;51.104;-115.370;2023-06-04T05:35:19;8.90;;;6.60;;
74535;SDS011;63013;51.104;-115.370;2023-06-04T05:37:46;7.50;;;6.30;;
74535;SDS011;63013;51.104;-115.370;2023-06-04T05:40:20;8.10;;;6.40;;
74535;SDS011;63013;51.104;-115.370;2023-06-04T05:42:48;9.60;;;6.20;;
74535;SDS011;63013;51.104;-115.370;2023-06-04T05:45:15;9.40;;;7.20;;
74535;SDS011;63013;51.104;-115.370;2023-06-04T05:47:42;8.70;;;6.40;;
74535;SDS011;63013;51.104;-115.370;2023-06-04T05:50:09;7.60;;;6.00;;
74535;SDS011;63013;51.104;-115.370;2023-06-04T05:52:37;7.80;;;5.70;;
74535;SDS011;63013;51.104;-115.370;2023-06-04T05:55:04;8.80;;;6.50;;
74535;SDS011;63013;51.104;-115.370;2023-06-04T05:57:36;10.50;;;7.00;;
74535;SDS011;63013;51.104;-115.370;2023-06-04T06:00:03;10.20;;;6.80;;
74535;SDS011;63013;51.104;-115.370;2023-06-04T06:02:36;8.20;;;6.50;;
74535;SDS011;63013;51.104;-115.370;2023-06-04T06:05:05;8.90;;;6.40;;
74535;SDS011;63013;51.104;-115.370;2023-06-04T06:07:36;8.30;;;6.10;;
74535;SDS011;63013;51.104;-115.370;2023-06-04T06:10:03;8.80;;;6.40;;
74535;SDS011;63013;51.104;-115.370;2023-06-04T06:12:31;8.20;;;6.10;;
74535;SDS011;63013;51.104;-115.370;2023-06-04T06:14:58;8.20;;;5.90;;
74535;SDS011;63013;51.104;-115.370;2023-06-04T06:17:25;7.70;;;6.10;;
74535;SDS011;63013;51.104;-115.370;2023-06-04T06:19:52;9.40;;;6.60;;
74535;SDS011;63013;51.104;-115.370;2023-06-04T06:22:19;10.10;;;6.10;;
74535;SDS011;63013;51.104;-115.370;2023-06-04T06:24:46;8.00;;;6.60;;
74535;SDS011;63013;51.104;-115.370;2023-06-04T06:27:15;9.00;;;6.60;;
74535;SDS011;63013;51.104;-115.370;2023-06-04T06:29:43;8.70;;;6.30;;
74535;SDS011;63013;51.104;-115.370;2023-06-04T06:32:11;8.90;;;6.00;;
74535;SDS011;63013;51.104;-115.370;2023-06-04T06:34:38;7.80;;;6.20;;
74535;SDS011;63013;51.104;-115.370;2023-06-04T06:37:06;8.70;;;6.20;;
74535;SDS011;63013;51.104;-115.370;2023-06-04T06:39:33;9.10;;;6.10;;
74535;SDS011;63013;51.104;-115.370;2023-06-04T06:42:01;8.70;;;6.00;;
74535;SDS011;63013;51.104;-115.370;2023-06-04T06:44:28;8.90;;;6.10;;
74535;SDS011;63013;51.104;-115.370;2023-06-04T06:46:55;8.40;;;6.20;;
74535;SDS011;63013;51.104;-115.370;2023-06-04T06:49:22;9.40;;;6.60;;
74535;SDS011;63013;51.104;-115.370;2023-06-04T06:51:49;7.40;;;6.00;;
74535;SDS011;63013;51.104;-115.370;2023-06-04T06:54:16;8.10;;;6.20;;
74535;SDS011;63013;51.104;-115.370;2023-06-04T06:56:50;8.10;;;5.80;;
74535;SDS011;63013;51.104;-115.370;2023-06-04T06:59:17;9.30;;;5.50;;
74535;SDS011;63013;51.104;-115.370;2023-06-04T07:01:45;8.50;;;5.60;;
74535;SDS011;63013;51.104;-115.370;2023-06-04T08:08:43;6.80;;;5.10;;
74535;SDS011;63013;51.104;-115.370;2023-06-04T08:11:15;7.60;;;5.50;;
74535;SDS011;63013;51.104;-115.370;2023-06-04T08:13:42;7.20;;;5.70;;
74535;SDS011;63013;51.104;-115.370;2023-06-04T08:16:09;6.90;;;5.50;;
74535;SDS011;63013;51.104;-115.370;2023-06-04T08:18:40;6.50;;;5.00;;
74535;SDS011;63013;51.104;-115.370;2023-06-04T08:21:11;7.40;;;5.20;;
74535;SDS011;63013;51.104;-115.370;2023-06-04T08:23:38;8.20;;;5.40;;
74535;SDS011;63013;51.104;-115.370;2023-06-04T08:26:06;7.40;;;4.80;;
74535;SDS011;63013;51.104;-115.370;2023-06-04T08:28:33;7.90;;;5.60;;
74535;SDS011;63013;51.104;-115.370;2023-06-04T08:31:00;6.70;;;5.40;;
74535;SDS011;63013;51.104;-115.370;2023-06-04T08:33:27;7.60;;;5.40;;
74535;SDS011;63013;51.104;-115.370;2023-06-04T08:35:54;6.70;;;5.20;;
74535;SDS011;63013;51.104;-115.370;2023-06-04T08:38:21;7.30;;;5.80;;
74535;SDS011;63013;51.104;-115.370;2023-06-04T08:40:52;8.00;;;5.60;;
74535;SDS011;63013;51.104;-115.370;2023-06-04T08:43:23;6.90;;;5.20;;
74535;SDS011;63013;51.104;-115.370;2023-06-04T08:45:59;7.20;;;5.10;;
74535;SDS011;63013;51.104;-115.370;2023-06-04T08:48:28;7.90;;;5.60;;
74535;SDS011;63013;51.104;-115.370;2023-06-04T08:51:00;7.80;;;5.40;;
74535;SDS011;63013;51.104;-115.370;2023-06-04T08:53:30;7.80;;;5.70;;
74535;SDS011;63013;51.104;-115.370;2023-06-04T08:55:58;6.50;;;5.20;;
74535;SDS011;63013;51.104;-115.370;2023-06-04T08:58:28;6.30;;;5.20;;
74535;SDS011;63013;51.104;-115.370;2023-06-04T09:01:00;6.70;;;4.90;;
74535;SDS011;63013;51.104;-115.370;2023-06-04T09:03:28;6.60;;;5.10;;
74535;SDS011;63013;51.104;-115.370;2023-06-04T09:06:02;6.20;;;4.70;;
74535;SDS011;63013;51.104;-115.370;2023-06-04T09:08:32;7.30;;;5.30;;
74535;SDS011;63013;51.104;-115.370;2023-06-04T09:11:06;6.60;;;5.50;;
74535;SDS011;63013;51.104;-115.370;2023-06-04T09:13:38;7.40;;;5.50;;
74535;SDS011;63013;51.104;-115.370;2023-06-04T09:16:06;7.90;;;5.30;;
74535;SDS011;63013;51.104;-115.370;2023-06-04T09:18:33;6.60;;;5.40;;
74535;SDS011;63013;51.104;-115.370;2023-06-04T09:21:04;6.40;;;5.20;;
74535;SDS011;63013;51.104;-115.370;2023-06-04T09:23:51;6.80;;;5.20;;
74535;SDS011;63013;51.104;-115.370;2023-06-04T09:26:18;7.00;;;5.20;;
74535;SDS011;63013;51.104;-115.370;2023-06-04T09:28:47;7.80;;;5.50;;
74535;SDS011;63013;51.104;-115.370;2023-06-04T09:31:17;6.50;;;5.10;;
74535;SDS011;63013;51.104;-115.370;2023-06-04T09:33:50;6.20;;;5.00;;
74535;SDS011;63013;51.104;-115.370;2023-06-04T09:36:18;6.50;;;4.70;;
74535;SDS011;63013;51.104;-115.370;2023-06-04T09:38:46;6.30;;;4.90;;
74535;SDS011;63013;51.104;-115.370;2023-06-04T09:41:15;6.80;;;5.00;;
74535;SDS011;63013;51.104;-115.370;2023-06-04T09:43:47;6.50;;;5.20;;
74535;SDS011;63013;51.104;-115.370;2023-06-04T09:46:17;7.20;;;5.10;;
74535;SDS011;63013;51.104;-115.370;2023-06-04T09:48:44;7.30;;;5.40;;
74535;SDS011;63013;51.104;-115.370;2023-06-04T09:51:13;6.00;;;5.00;;
74535;SDS011;63013;51.104;-115.370;2023-06-04T09:53:42;6.00;;;4.90;;
74535;SDS011;63013;51.104;-115.370;2023-06-04T09:56:19;6.80;;;5.30;;
74535;SDS011;63013;51.104;-115.370;2023-06-04T09:58:49;6.30;;;4.90;;
74535;SDS011;63013;51.104;-115.370;2023-06-04T10:01:20;6.20;;;5.30;;
74535;SDS011;63013;51.104;-115.370;2023-06-04T10:03:50;6.60;;;4.80;;
74535;SDS011;63013;51.104;-115.370;2023-06-04T10:06:19;6.50;;;4.90;;
74535;SDS011;63013;51.104;-115.370;2023-06-04T10:08:48;6.40;;;5.00;;
74535;SDS011;63013;51.104;-115.370;2023-06-04T10:11:23;7.80;;;5.00;;
74535;SDS011;63013;51.104;-115.370;2023-06-04T10:14:10;6.30;;;4.90;;
74535;SDS011;63013;51.104;-115.370;2023-06-04T10:16:45;5.40;;;4.70;;
74535;SDS011;63013;51.104;-115.370;2023-06-04T10:19:15;6.70;;;5.20;;
74535;SDS011;63013;51.104;-115.370;2023-06-04T10:21:44;6.90;;;5.00;;
74535;SDS011;63013;51.104;-115.370;2023-06-04T10:24:12;7.40;;;5.00;;
74535;SDS011;63013;51.104;-115.370;2023-06-04T10:26:42;5.30;;;4.70;;
74535;SDS011;63013;51.104;-115.370;2023-06-04T10:29:10;6.30;;;4.90;;
74535;SDS011;63013;51.104;-115.370;2023-06-04T10:31:39;6.60;;;4.90;;
74535;SDS011;63013;51.104;-115.370;2023-06-04T10:34:07;6.30;;;4.80;;
74535;SDS011;63013;51.104;-115.370;2023-06-04T10:36:43;7.40;;;4.80;;
74535;SDS011;63013;51.104;-115.370;2023-06-04T10:39:11;5.80;;;4.80;;
74535;SDS011;63013;51.104;-115.370;2023-06-04T10:41:38;6.10;;;4.70;;
74535;SDS011;63013;51.104;-115.370;2023-06-04T10:44:06;5.80;;;5.10;;
74535;SDS011;63013;51.104;-115.370;2023-06-04T10:46:40;6.60;;;4.80;;
74535;SDS011;63013;51.104;-115.370;2023-06-04T10:49:11;5.90;;;4.70;;
74535;SDS011;63013;51.104;-115.370;2023-06-04T10:51:38;6.70;;;5.40;;
74535;SDS011;63013;51.104;-115.370;2023-06-04T10:54:05;6.70;;;5.10;;
74535;SDS011;63013;51.104;-115.370;2023-06-04T10:56:33;7.70;;;5.00;;
74535;SDS011;63013;51.104;-115.370;2023-06-04T10:59:13;6.40;;;4.90;;
74535;SDS011;63013;51.104;-115.370;2023-06-04T11:01:45;7.40;;;4.90;;
74535;SDS011;63013;51.104;-115.370;2023-06-04T11:04:19;6.40;;;4.80;;
74535;SDS011;63013;51.104;-115.370;2023-06-04T11:06:48;6.70;;;4.80;;
74535;SDS011;63013;51.104;-115.370;2023-06-04T11:09:48;6.20;;;4.70;;
74535;SDS011;63013;51.104;-115.370;2023-06-04T11:12:16;6.10;;;4.70;;
74535;SDS011;63013;51.104;-115.370;2023-06-04T11:14:58;5.50;;;4.50;;
74535;SDS011;63013;51.104;-115.370;2023-06-04T11:17:25;5.40;;;4.50;;
74535;SDS011;63013;51.104;-115.370;2023-06-04T11:19:52;5.70;;;5.00;;
74535;SDS011;63013;51.104;-115.370;2023-06-04T11:22:21;7.00;;;4.60;;
74535;SDS011;63013;51.104;-115.370;2023-06-04T11:24:49;6.90;;;5.10;;
74535;SDS011;63013;51.104;-115.370;2023-06-04T11:27:22;7.00;;;5.30;;
74535;SDS011;63013;51.104;-115.370;2023-06-04T11:29:50;6.30;;;5.20;;
74535;SDS011;63013;51.104;-115.370;2023-06-04T11:32:25;6.20;;;5.00;;
74535;SDS011;63013;51.104;-115.370;2023-06-04T11:35:02;6.50;;;5.00;;
74535;SDS011;63013;51.104;-115.370;2023-06-04T11:37:33;7.60;;;5.20;;
74535;SDS011;63013;51.104;-115.370;2023-06-04T11:40:01;5.70;;;4.70;;
74535;SDS011;63013;51.104;-115.370;2023-06-04T11:42:31;6.50;;;5.10;;
74535;SDS011;63013;51.104;-115.370;2023-06-04T11:44:59;5.80;;;4.60;;
74535;SDS011;63013;51.104;-115.370;2023-06-04T11:47:27;5.10;;;4.10;;
74535;SDS011;63013;51.104;-115.370;2023-06-04T11:49:58;5.50;;;4.60;;
74535;SDS011;63013;51.104;-115.370;2023-06-04T11:52:26;5.10;;;4.40;;
74535;SDS011;63013;51.104;-115.370;2023-06-04T11:54:54;6.80;;;4.40;;
74535;SDS011;63013;51.104;-115.370;2023-06-04T11:57:22;5.90;;;4.50;;
74535;SDS011;63013;51.104;-115.370;2023-06-04T11:59:49;7.30;;;5.10;;
74535;SDS011;63013;51.104;-115.370;2023-06-04T12:02:16;5.90;;;4.70;;
74535;SDS011;63013;51.104;-115.370;2023-06-04T12:04:48;6.10;;;4.70;;
74535;SDS011;63013;51.104;-115.370;2023-06-04T12:07:20;8.50;;;5.00;;
74535;SDS011;63013;51.104;-115.370;2023-06-04T12:09:50;5.50;;;4.40;;
74535;SDS011;63013;51.104;-115.370;2023-06-04T12:12:22;6.10;;;4.80;;
74535;SDS011;63013;51.104;-115.370;2023-06-04T12:14:59;5.50;;;4.20;;
74535;SDS011;63013;51.104;-115.370;2023-06-04T12:17:26;7.00;;;5.10;;
74535;SDS011;63013;51.104;-115.370;2023-06-04T12:19:53;6.50;;;4.80;;
74535;SDS011;63013;51.104;-115.370;2023-06-04T12:22:21;5.10;;;4.50;;
74535;SDS011;63013;51.104;-115.370;2023-06-04T12:24:53;5.40;;;4.50;;
74535;SDS011;63013;51.104;-115.370;2023-06-04T12:27:26;6.10;;;4.70;;
74535;SDS011;63013;51.104;-115.370;2023-06-04T12:30:03;6.20;;;4.70;;
74535;SDS011;63013;51.104;-115.370;2023-06-04T12:32:34;6.20;;;4.30;;
74535;SDS011;63013;51.104;-115.370;2023-06-04T12:35:02;5.50;;;4.50;;
74535;SDS011;63013;51.104;-115.370;2023-06-04T12:37:29;5.40;;;4.50;;
74535;SDS011;63013;51.104;-115.370;2023-06-04T12:39:56;5.00;;;4.00;;
74535;SDS011;63013;51.104;-115.370;2023-06-04T12:42:23;5.30;;;4.20;;
74535;SDS011;63013;51.104;-115.370;2023-06-04T12:44:51;5.30;;;4.50;;
74535;SDS011;63013;51.104;-115.370;2023-06-04T12:47:17;7.80;;;4.90;;
74535;SDS011;63013;51.104;-115.370;2023-06-04T12:49:46;5.80;;;4.10;;
74535;SDS011;63013;51.104;-115.370;2023-06-04T12:52:13;4.90;;;4.00;;
74535;SDS011;63013;51.104;-115.370;2023-06-04T12:54:41;6.40;;;4.80;;
74535;SDS011;63013;51.104;-115.370;2023-06-04T12:57:09;5.60;;;4.40;;
74535;SDS011;63013;51.104;-115.370;2023-06-04T12:59:36;6.00;;;4.40;;
74535;SDS011;63013;51.104;-115.370;2023-06-04T13:02:03;5.90;;;4.50;;
74535;SDS011;63013;51.104;-115.370;2023-06-04T13:04:31;7.60;;;4.80;;
74535;SDS011;63013;51.104;-115.370;2023-06-04T13:06:58;6.10;;;4.90;;
74535;SDS011;63013;51.104;-115.370;2023-06-04T13:09:26;5.70;;;4.50;;
74535;SDS011;63013;51.104;-115.370;2023-06-04T13:11:57;6.30;;;4.70;;
74535;SDS011;63013;51.104;-115.370;2023-06-04T13:14:24;5.50;;;4.80;;
74535;SDS011;63013;51.104;-115.370;2023-06-04T13:16:51;5.60;;;4.40;;
74535;SDS011;63013;51.104;-115.370;2023-06-04T13:19:19;6.50;;;5.00;;
74535;SDS011;63013;51.104;-115.370;2023-06-04T13:21:46;5.80;;;4.60;;
74535;SDS011;63013;51.104;-115.370;2023-06-04T13:24:13;5.90;;;4.70;;
74535;SDS011;63013;51.104;-115.370;2023-06-04T13:26:41;5.50;;;4.40;;
74535;SDS011;63013;51.104;-115.370;2023-06-04T13:29:08;6.80;;;4.40;;
74535;SDS011;63013;51.104;-115.370;2023-06-04T13:31:36;6.10;;;5.00;;
74535;SDS011;63013;51.104;-115.370;2023-06-04T13:34:05;7.30;;;5.20;;
74535;SDS011;63013;51.104;-115.370;2023-06-04T13:36:32;7.00;;;4.50;;
74535;SDS011;63013;51.104;-115.370;2023-06-04T13:38:59;6.70;;;4.60;;
74535;SDS011;63013;51.104;-115.370;2023-06-04T13:41:26;6.00;;;4.70;;
74535;SDS011;63013;51.104;-115.370;2023-06-04T13:43:53;5.20;;;4.50;;
74535;SDS011;63013;51.104;-115.370;2023-06-04T13:46:20;6.60;;;4.70;;
74535;SDS011;63013;51.104;-115.370;2023-06-04T13:48:47;6.10;;;4.60;;
74535;SDS011;63013;51.104;-115.370;2023-06-04T13:51:14;6.60;;;4.50;;
74535;SDS011;63013;51.104;-115.370;2023-06-04T13:53:41;6.30;;;4.40;;
74535;SDS011;63013;51.104;-115.370;2023-06-04T13:56:08;6.30;;;4.40;;
74535;SDS011;63013;51.104;-115.370;2023-06-04T13:58:35;6.40;;;4.90;;
74535;SDS011;63013;51.104;-115.370;2023-06-04T14:01:02;6.00;;;4.40;;
74535;SDS011;63013;51.104;-115.370;2023-06-04T14:03:28;6.10;;;4.60;;
74535;SDS011;63013;51.104;-115.370;2023-06-04T14:05:56;5.50;;;4.00;;
74535;SDS011;63013;51.104;-115.370;2023-06-04T14:08:23;5.70;;;4.20;;
74535;SDS011;63013;51.104;-115.370;2023-06-04T14:10:50;5.50;;;4.50;;
74535;SDS011;63013;51.104;-115.370;2023-06-04T14:13:18;5.80;;;4.50;;
74535;SDS011;63013;51.104;-115.370;2023-06-04T14:15:44;5.60;;;4.10;;
74535;SDS011;63013;51.104;-115.370;2023-06-04T14:18:12;5.30;;;4.40;;
74535;SDS011;63013;51.104;-115.370;2023-06-04T14:20:38;5.80;;;4.40;;
74535;SDS011;63013;51.104;-115.370;2023-06-04T14:23:05;5.50;;;4.40;;
74535;SDS011;63013;51.104;-115.370;2023-06-04T14:25:33;5.40;;;4.40;;
74535;SDS011;63013;51.104;-115.370;2023-06-04T14:28:02;5.40;;;4.50;;
74535;SDS011;63013;51.104;-115.370;2023-06-04T14:30:29;5.80;;;4.40;;
74535;SDS011;63013;51.104;-115.370;2023-06-04T14:32:57;6.40;;;4.30;;
74535;SDS011;63013;51.104;-115.370;2023-06-04T14:35:24;5.60;;;4.50;;
74535;SDS011;63013;51.104;-115.370;2023-06-04T14:37:51;5.20;;;4.10;;
74535;SDS011;63013;51.104;-115.370;2023-06-04T14:40:18;6.50;;;4.00;;
74535;SDS011;63013;51.104;-115.370;2023-06-04T14:42:45;5.70;;;4.20;;
74535;SDS011;63013;51.104;-115.370;2023-06-04T14:45:12;4.80;;;3.90;;
74535;SDS011;63013;51.104;-115.370;2023-06-04T14:47:39;5.50;;;4.30;;
74535;SDS011;63013;51.104;-115.370;2023-06-04T14:50:06;7.90;;;4.40;;
74535;SDS011;63013;51.104;-115.370;2023-06-04T14:52:33;5.10;;;4.40;;
74535;SDS011;63013;51.104;-115.370;2023-06-04T14:55:00;5.90;;;4.30;;
74535;SDS011;63013;51.104;-115.370;2023-06-04T14:57:27;5.50;;;3.90;;
74535;SDS011;63013;51.104;-115.370;2023-06-04T14:59:53;4.80;;;3.80;;
74535;SDS011;63013;51.104;-115.370;2023-06-04T15:02:20;6.40;;;4.40;;
74535;SDS011;63013;51.104;-115.370;2023-06-04T15:04:47;5.10;;;4.20;;
74535;SDS011;63013;51.104;-115.370;2023-06-04T15:07:14;6.10;;;4.20;;
74535;SDS011;63013;51.104;-115.370;2023-06-04T15:09:41;5.50;;;4.30;;
74535;SDS011;63013;51.104;-115.370;2023-06-04T15:12:08;5.40;;;4.20;;
74535;SDS011;63013;51.104;-115.370;2023-06-04T15:14:35;5.80;;;4.30;;
74535;SDS011;63013;51.104;-115.370;2023-06-04T15:17:03;4.90;;;3.90;;
74535;SDS011;63013;51.104;-115.370;2023-06-04T15:19:29;6.20;;;4.00;;
74535;SDS011;63013;51.104;-115.370;2023-06-04T15:21:57;5.40;;;4.30;;
74535;SDS011;63013;51.104;-115.370;2023-06-04T15:24:24;6.40;;;4.20;;
74535;SDS011;63013;51.104;-115.370;2023-06-04T15:26:51;5.80;;;4.50;;
74535;SDS011;63013;51.104;-115.370;2023-06-04T15:29:18;5.70;;;4.30;;
74535;SDS011;63013;51.104;-115.370;2023-06-04T15:31:45;6.70;;;4.00;;